Time,TemperatureF,DewpointF,PressureIn,WindDirection,WindDirectionDegrees,WindSpeedMPH,WindSpeedGustMPH,Humidity,HourlyPrecipIn,Conditions,Clouds,dailyrainin,SoftwareType,DateUTC
2013-09-29 00:00:00,50.5,49.4,30.24,WNW,291,0.0,1.0,96,0.00,,---,0.00,VWS V14.01,2013-09-29 04:00:00,
2013-09-29 00:01:00,50.4,49.0,30.24,WNW,291,0.0,0.0,95,0.00,,---,0.00,VWS V14.01,2013-09-29 04:01:00,
2013-09-29 00:06:00,50.1,48.7,30.24,WNW,291,0.0,0.0,95,0.00,,---,0.00,VWS V14.01,2013-09-29 04:06:00,
2013-09-29 00:11:00,49.7,48.3,30.24,WNW,291,0.0,0.0,95,0.00,,---,0.00,VWS V14.01,2013-09-29 04:11:00,
2013-09-29 00:16:00,49.5,48.1,30.24,WNW,291,0.0,0.0,95,0.00,,---,0.00,VWS V14.01,2013-09-29 04:16:00,
2013-09-29 00:21:00,49.3,47.9,30.24,WNW,291,0.0,0.0,95,0.00,,---,0.00,VWS V14.01,2013-09-29 04:21:00,
2013-09-29 00:26:00,49.2,48.1,30.24,WNW,291,0.0,0.0,96,0.00,,---,0.00,VWS V14.01,2013-09-29 04:26:00,
2013-09-29 00:30:00,49.2,48.1,30.24,WNW,291,0.0,0.0,96,0.00,,---,0.00,VWS V14.01,2013-09-29 04:30:00,
2013-09-29 00:31:00,49.1,48.0,30.24,WNW,291,0.0,0.0,96,0.00,,---,0.00,VWS V14.01,2013-09-29 04:31:00,
2013-09-29 00:36:00,49.0,47.9,30.24,WNW,291,0.0,0.0,96,0.00,,---,0.00,VWS V14.01,2013-09-29 04:36:00,
2013-09-29 00:41:00,49.0,47.9,30.25,WNW,291,0.0,0.0,96,0.00,,---,0.00,VWS V14.01,2013-09-29 04:41:00,
2013-09-29 00:46:00,49.0,47.9,30.24,WNW,291,0.0,0.0,96,0.00,,---,0.00,VWS V14.01,2013-09-29 04:46:00,
2013-09-29 00:51:00,49.1,48.3,30.24,WNW,291,0.0,0.0,97,0.00,,---,0.00,VWS V14.01,2013-09-29 04:51:00,
2013-09-29 00:56:00,49.3,48.5,30.24,WNW,291,0.0,0.0,97,0.00,,---,0.00,VWS V14.01,2013-09-29 04:56:00,
2013-09-29 01:00:00,49.7,48.9,30.24,WNW,291,0.0,0.0,97,0.00,,---,0.00,VWS V14.01,2013-09-29 05:00:00,
2013-09-29 01:01:00,49.7,48.9,30.24,WNW,291,0.0,0.0,97,0.00,,---,0.00,VWS V14.01,2013-09-29 05:01:00,
2013-09-29 01:06:00,49.5,48.7,30.24,WNW,291,0.0,0.0,97,0.00,,---,0.00,VWS V14.01,2013-09-29 05:06:00,
2013-09-29 01:11:00,49.0,48.2,30.24,WNW,291,0.0,0.0,97,0.00,,---,0.00,VWS V14.01,2013-09-29 05:11:00,
2013-09-29 01:16:00,48.9,48.1,30.25,WNW,291,0.0,0.0,97,0.00,,---,0.00,VWS V14.01,2013-09-29 05:16:00,
2013-09-29 01:21:00,48.6,47.8,30.25,WNW,291,0.0,0.0,97,0.00,,---,0.00,VWS V14.01,2013-09-29 05:21:00,
2013-09-29 01:26:00,48.7,47.9,30.24,WNW,291,0.0,0.0,97,0.00,,---,0.00,VWS V14.01,2013-09-29 05:26:00,
2013-09-29 01:30:00,48.6,47.8,30.24,WNW,290,0.0,0.0,97,0.00,,---,0.00,VWS V14.01,2013-09-29 05:30:00,
2013-09-29 01:31:00,48.5,47.7,30.24,WNW,291,0.0,0.0,97,0.00,,---,0.00,VWS V14.01,2013-09-29 05:31:00,
2013-09-29 02:00:00,48.1,47.6,30.24,WNW,291,0.0,0.0,98,0.00,,---,0.00,VWS V14.01,2013-09-29 06:00:00,
2013-09-29 02:30:00,47.3,46.5,30.24,WNW,291,0.0,0.0,97,0.00,,---,0.00,VWS V14.01,2013-09-29 06:30:00,
2013-09-29 03:00:00,46.4,45.6,30.23,WNW,291,0.0,1.0,97,0.00,,---,0.00,VWS V14.01,2013-09-29 07:00:00,
2013-09-29 03:30:00,45.8,45.0,30.22,NW,307,0.0,1.0,97,0.00,,---,0.00,VWS V14.01,2013-09-29 07:30:00,
2013-09-29 04:00:00,45.5,45.0,30.22,NW,307,0.0,0.0,98,0.00,,---,0.00,VWS V14.01,2013-09-29 08:00:00,
2013-09-29 04:30:00,44.9,44.4,30.21,NNE,20,0.0,0.0,98,0.00,,---,0.00,VWS V14.01,2013-09-29 08:30:00,
2013-09-29 05:00:00,44.8,44.3,30.22,North,2,0.0,1.0,98,0.00,,---,0.00,VWS V14.01,2013-09-29 09:00:00,
2013-09-29 05:30:00,44.4,43.9,30.21,North,6,0.0,0.0,98,0.00,,---,0.00,VWS V14.01,2013-09-29 09:30:00,
2013-09-29 06:00:00,43.9,43.4,30.22,NE,36,0.0,1.0,98,0.00,,---,0.00,VWS V14.01,2013-09-29 10:00:00,
2013-09-29 06:30:00,43.6,43.1,30.22,NW,310,0.0,0.0,98,0.00,,---,0.00,VWS V14.01,2013-09-29 10:30:00,
2013-09-29 07:00:00,43.5,43.0,30.22,NW,306,0.0,0.0,98,0.00,,---,0.00,VWS V14.01,2013-09-29 11:00:00,
2013-09-29 07:30:00,43.2,42.7,30.23,West,266,0.0,0.0,98,0.00,,---,0.00,VWS V14.01,2013-09-29 11:30:00,
2013-09-29 08:00:00,43.8,43.3,30.23,West,275,0.0,1.0,98,0.00,,---,0.00,VWS V14.01,2013-09-29 12:00:00,
2013-09-29 08:30:00,45.1,44.6,30.22,North,357,0.0,1.0,98,0.00,,---,0.00,VWS V14.01,2013-09-29 12:30:00,
2013-09-29 09:00:00,48.2,47.7,30.23,NE,41,0.0,1.0,98,0.00,,---,0.00,VWS V14.01,2013-09-29 13:00:00,
2013-09-29 09:30:00,50.2,48.8,30.22,NE,34,0.0,3.0,95,0.00,,---,0.00,VWS V14.01,2013-09-29 13:30:00,
2013-09-29 10:00:00,53.9,50.7,30.22,ENE,57,1.0,3.0,89,0.00,,---,0.00,VWS V14.01,2013-09-29 14:00:00,
2013-09-29 10:30:00,56.9,51.8,30.22,ESE,115,0.0,3.0,83,0.00,,---,0.00,VWS V14.01,2013-09-29 14:30:00,
2013-09-29 11:00:00,60.7,53.1,30.22,East,90,0.0,3.0,76,0.00,,---,0.00,VWS V14.01,2013-09-29 15:00:00,
2013-09-29 11:30:00,63.5,52.4,30.21,ENE,65,2.0,4.0,67,0.00,,---,0.00,VWS V14.01,2013-09-29 15:30:00,
2013-09-29 12:00:00,65.7,51.9,30.19,WSW,251,0.0,6.0,61,0.00,,---,0.00,VWS V14.01,2013-09-29 16:00:00,
2013-09-29 12:30:00,66.9,50.2,30.19,SE,124,1.0,7.0,55,0.00,,---,0.00,VWS V14.01,2013-09-29 16:30:00,
2013-09-29 13:00:00,68.1,51.3,30.17,SSE,150,1.0,7.0,55,0.00,,---,0.00,VWS V14.01,2013-09-29 17:00:00,
2013-09-29 13:30:00,70.2,50.2,30.16,East,94,3.0,9.0,49,0.00,,---,0.00,VWS V14.01,2013-09-29 17:30:00,
2013-09-29 14:00:00,71.0,49.8,30.14,West,269,3.0,7.0,47,0.00,,---,0.00,VWS V14.01,2013-09-29 18:00:00,
2013-09-29 14:30:00,71.8,51.1,30.12,SE,146,2.0,10.0,48,0.00,,---,0.00,VWS V14.01,2013-09-29 18:30:00,
2013-09-29 15:00:00,71.2,49.4,30.11,South,169,2.0,10.0,46,0.00,,---,0.00,VWS V14.01,2013-09-29 19:00:00,
2013-09-29 15:30:00,71.9,50.0,30.10,WSW,253,2.0,11.0,46,0.00,,---,0.00,VWS V14.01,2013-09-29 19:30:00,
2013-09-29 16:00:00,71.0,50.3,30.09,SE,132,2.0,10.0,48,0.00,,---,0.00,VWS V14.01,2013-09-29 20:00:00,
2013-09-29 16:30:00,70.9,50.2,30.09,SW,225,2.0,6.0,48,0.00,,---,0.00,VWS V14.01,2013-09-29 20:30:00,
2013-09-29 17:00:00,71.6,50.3,30.08,SE,129,1.0,8.0,47,0.00,,---,0.00,VWS V14.01,2013-09-29 21:00:00,
2013-09-29 17:30:00,68.8,50.0,30.09,North,354,0.0,5.0,51,0.00,,---,0.00,VWS V14.01,2013-09-29 21:30:00,
2013-09-29 18:00:00,67.2,50.0,30.09,SW,220,1.0,5.0,54,0.00,,---,0.00,VWS V14.01,2013-09-29 22:00:00,
2013-09-29 18:22:00,66.6,50.4,30.09,SSW,213,0.0,0.0,56,0.00,,---,0.00,VWS V14.01,2013-09-29 22:22:00,
2013-09-29 18:27:00,66.6,50.0,30.09,WSW,243,1.0,3.0,55,0.00,,---,0.00,VWS V14.01,2013-09-29 22:27:00,
2013-09-29 18:30:00,68.8,50.0,30.09,North,354,0.0,5.0,51,0.00,,---,0.00,VWS V14.01,2013-09-29 22:30:00,
2013-09-29 18:32:00,66.6,50.4,30.09,SSW,199,0.0,3.0,56,0.00,,---,0.00,VWS V14.01,2013-09-29 22:32:00,
2013-09-29 18:37:00,66.4,50.2,30.09,SSW,204,0.0,3.0,56,0.00,,---,0.00,VWS V14.01,2013-09-29 22:37:00,
2013-09-29 18:42:00,66.1,50.4,30.09,SSW,212,2.0,3.0,57,0.00,,---,0.00,VWS V14.01,2013-09-29 22:42:00,
2013-09-29 18:47:00,65.7,50.5,30.09,SW,229,0.0,3.0,58,0.00,,---,0.00,VWS V14.01,2013-09-29 22:47:00,
2013-09-29 18:52:00,65.4,50.2,30.09,SSW,205,0.0,3.0,58,0.00,,---,0.00,VWS V14.01,2013-09-29 22:52:00,
2013-09-29 18:57:00,65.1,50.4,30.09,SSW,213,1.0,3.0,59,0.00,,---,0.00,VWS V14.01,2013-09-29 22:57:00,
2013-09-29 19:00:00,67.2,50.0,30.09,SW,220,1.0,5.0,54,0.00,,---,0.00,VWS V14.01,2013-09-29 23:00:00,
2013-09-29 19:02:00,64.7,50.5,30.08,SSW,210,0.0,0.0,60,0.00,,---,0.00,VWS V14.01,2013-09-29 23:02:00,
2013-09-29 19:07:00,64.3,50.6,30.08,SSW,210,0.0,0.0,61,0.00,,---,0.00,VWS V14.01,2013-09-29 23:07:00,
2013-09-29 19:12:00,63.7,50.5,30.08,SSW,210,0.0,0.0,62,0.00,,---,0.00,VWS V14.01,2013-09-29 23:12:00,
2013-09-29 19:17:00,63.1,50.7,30.09,SSW,210,0.0,0.0,64,0.00,,---,0.00,VWS V14.01,2013-09-29 23:17:00,
2013-09-29 19:22:00,62.6,50.7,30.09,SSW,210,0.0,0.0,65,0.00,,---,0.00,VWS V14.01,2013-09-29 23:22:00,
2013-09-29 19:27:00,62.4,50.9,30.08,SSW,210,0.0,0.0,66,0.00,,---,0.00,VWS V14.01,2013-09-29 23:27:00,
2013-09-29 19:30:00,66.6,50.4,30.09,WSW,256,3.0,3.0,56,0.00,,---,0.00,VWS V14.01,2013-09-29 23:30:00,
2013-09-29 19:32:00,61.6,51.0,30.08,SW,214,0.0,0.0,68,0.00,,---,0.00,VWS V14.01,2013-09-29 23:32:00,
2013-09-29 19:37:00,60.7,50.9,30.09,NW,313,0.0,1.0,70,0.00,,---,0.00,VWS V14.01,2013-09-29 23:37:00,
2013-09-29 19:42:00,60.1,50.7,30.09,NW,313,0.0,1.0,71,0.00,,---,0.00,VWS V14.01,2013-09-29 23:42:00,
2013-09-29 19:47:00,59.6,50.6,30.09,NW,313,0.0,1.0,72,0.00,,---,0.00,VWS V14.01,2013-09-29 23:47:00,
2013-09-29 19:52:00,59.0,50.4,30.09,NW,313,0.0,1.0,73,0.00,,---,0.00,VWS V14.01,2013-09-29 23:52:00,
2013-09-29 19:57:00,58.6,50.3,30.09,NW,313,0.0,1.0,74,0.00,,---,0.00,VWS V14.01,2013-09-29 23:57:00,
2013-09-29 20:00:00,64.9,50.2,30.08,SSW,210,0.0,3.0,59,0.00,,---,0.00,VWS V14.01,2013-09-30 00:00:00,
2013-09-29 20:02:00,58.3,50.8,30.09,NW,312,0.0,0.0,76,0.00,,---,0.00,VWS V14.01,2013-09-30 00:02:00,
2013-09-29 20:07:00,58.0,50.8,30.09,NW,312,0.0,0.0,77,0.00,,---,0.00,VWS V14.01,2013-09-30 00:07:00,
2013-09-29 20:12:00,57.7,50.5,30.09,NW,312,0.0,1.0,77,0.00,,---,0.00,VWS V14.01,2013-09-30 00:12:00,
2013-09-29 20:17:00,57.5,50.7,30.09,NW,312,0.0,1.0,78,0.00,,---,0.00,VWS V14.01,2013-09-30 00:17:00,
2013-09-29 20:22:00,57.1,50.7,30.09,NW,316,0.0,1.0,79,0.00,,---,0.00,VWS V14.01,2013-09-30 00:22:00,
2013-09-29 20:27:00,56.7,50.3,30.09,NW,314,0.0,1.0,79,0.00,,---,0.00,VWS V14.01,2013-09-30 00:27:00,
2013-09-29 20:30:00,62.0,51.3,30.08,SSW,210,0.0,1.0,68,0.00,,---,0.00,VWS V14.01,2013-09-30 00:30:00,
2013-09-29 20:32:00,56.5,50.4,30.09,NW,311,0.0,0.0,80,0.00,,---,0.00,VWS V14.01,2013-09-30 00:32:00,
2013-09-29 20:37:00,56.4,50.3,30.09,NW,311,0.0,0.0,80,0.00,,---,0.00,VWS V14.01,2013-09-30 00:37:00,
2013-09-29 20:42:00,56.2,50.1,30.09,NW,311,0.0,0.0,80,0.00,,---,0.00,VWS V14.01,2013-09-30 00:42:00,
2013-09-29 20:47:00,56.0,50.3,30.09,NW,310,0.0,0.0,81,0.00,,---,0.00,VWS V14.01,2013-09-30 00:47:00,
2013-09-29 20:52:00,55.7,50.3,30.09,WNW,303,0.0,1.0,82,0.00,,---,0.00,VWS V14.01,2013-09-30 00:52:00,
2013-09-29 20:57:00,55.4,50.0,30.09,WNW,300,0.0,1.0,82,0.00,,---,0.00,VWS V14.01,2013-09-30 00:57:00,
2013-09-29 21:00:00,58.4,50.9,30.09,NW,313,0.0,1.0,76,0.00,,---,0.00,VWS V14.01,2013-09-30 01:00:00,
2013-09-29 21:02:00,55.3,50.2,30.09,WNW,303,0.0,0.0,83,0.00,,---,0.00,VWS V14.01,2013-09-30 01:02:00,
2013-09-29 21:07:00,55.3,50.2,30.09,WSW,255,0.0,1.0,83,0.00,,---,0.00,VWS V14.01,2013-09-30 01:07:00,
2013-09-29 21:12:00,55.4,50.0,30.09,WSW,255,0.0,1.0,82,0.00,,---,0.00,VWS V14.01,2013-09-30 01:12:00,
2013-09-29 21:17:00,55.4,50.0,30.09,WSW,255,0.0,1.0,82,0.00,,---,0.00,VWS V14.01,2013-09-30 01:17:00,
2013-09-29 21:22:00,55.1,49.7,30.09,WSW,255,0.0,1.0,82,0.00,,---,0.00,VWS V14.01,2013-09-30 01:22:00,
2013-09-29 21:27:00,54.8,49.7,30.09,WSW,255,0.0,1.0,83,0.00,,---,0.00,VWS V14.01,2013-09-30 01:27:00,
2013-09-29 21:30:00,56.6,50.5,30.09,NW,314,0.0,1.0,80,0.00,,---,0.00,VWS V14.01,2013-09-30 01:30:00,
2013-09-29 21:32:00,54.5,49.8,30.09,WSW,255,0.0,0.0,84,0.00,,---,0.00,VWS V14.01,2013-09-30 01:32:00,
2013-09-29 21:37:00,54.2,49.5,30.10,WSW,255,0.0,0.0,84,0.00,,---,0.00,VWS V14.01,2013-09-30 01:37:00,
2013-09-29 21:42:00,53.9,49.5,30.10,WNW,290,0.0,1.0,85,0.00,,---,0.00,VWS V14.01,2013-09-30 01:42:00,
2013-09-29 21:47:00,53.6,49.5,30.10,NW,305,0.0,1.0,86,0.00,,---,0.00,VWS V14.01,2013-09-30 01:47:00,
2013-09-29 21:52:00,53.4,49.6,30.10,NW,304,0.0,1.0,87,0.00,,---,0.00,VWS V14.01,2013-09-30 01:52:00,
2013-09-29 21:57:00,53.3,49.5,30.10,NW,305,0.0,1.0,87,0.00,,---,0.00,VWS V14.01,2013-09-30 01:57:00,
2013-09-29 22:00:00,55.4,50.3,30.09,WNW,300,0.0,1.0,83,0.00,,---,0.00,VWS V14.01,2013-09-30 02:00:00,
2013-09-29 22:02:00,53.2,49.4,30.10,NW,304,0.0,0.0,87,0.00,,---,0.00,VWS V14.01,2013-09-30 02:02:00,
2013-09-29 22:07:00,53.4,49.3,30.10,NW,304,0.0,0.0,86,0.00,,---,0.00,VWS V14.01,2013-09-30 02:07:00,
2013-09-29 22:12:00,53.5,49.4,30.10,NW,304,0.0,0.0,86,0.00,,---,0.00,VWS V14.01,2013-09-30 02:12:00,
2013-09-29 22:17:00,53.3,49.2,30.09,NW,304,0.0,0.0,86,0.00,,---,0.00,VWS V14.01,2013-09-30 02:17:00,
2013-09-29 22:22:00,53.1,49.0,30.10,NW,304,0.0,0.0,86,0.00,,---,0.00,VWS V14.01,2013-09-30 02:22:00,
2013-09-29 22:27:00,52.8,49.0,30.10,WNW,284,0.0,0.0,87,0.00,,---,0.00,VWS V14.01,2013-09-30 02:27:00,
2013-09-29 22:30:00,54.6,49.5,30.09,WSW,255,0.0,1.0,83,0.00,,---,0.00,VWS V14.01,2013-09-30 02:30:00,
2013-09-29 22:32:00,52.4,49.0,30.10,WNW,290,0.0,1.0,88,0.00,,---,0.00,VWS V14.01,2013-09-30 02:32:00,
2013-09-29 22:37:00,52.1,48.7,30.10,WNW,294,0.0,1.0,88,0.00,,---,0.00,VWS V14.01,2013-09-30 02:37:00,
2013-09-29 22:42:00,51.8,48.7,30.10,WNW,294,0.0,1.0,89,0.00,,---,0.00,VWS V14.01,2013-09-30 02:42:00,
2013-09-29 22:47:00,51.5,48.4,30.10,WNW,294,0.0,1.0,89,0.00,,---,0.00,VWS V14.01,2013-09-30 02:47:00,
2013-09-29 22:52:00,51.1,48.0,30.10,WNW,295,0.0,1.0,89,0.00,,---,0.00,VWS V14.01,2013-09-30 02:52:00,
2013-09-29 22:57:00,50.7,47.9,30.10,WNW,295,0.0,1.0,90,0.00,,---,0.00,VWS V14.01,2013-09-30 02:57:00,
2013-09-29 23:00:00,53.2,49.4,30.10,NW,304,0.0,1.0,87,0.00,,---,0.00,VWS V14.01,2013-09-30 03:00:00,
2013-09-29 23:02:00,50.6,48.4,30.10,WNW,294,0.0,0.0,92,0.00,,---,0.00,VWS V14.01,2013-09-30 03:02:00,
2013-09-29 23:07:00,50.5,48.6,30.10,WNW,294,0.0,0.0,93,0.00,,---,0.00,VWS V14.01,2013-09-30 03:07:00,
2013-09-29 23:12:00,50.4,48.2,30.10,WNW,294,0.0,0.0,92,0.00,,---,0.00,VWS V14.01,2013-09-30 03:12:00,
2013-09-29 23:17:00,50.1,47.9,30.10,WNW,294,0.0,0.0,92,0.00,,---,0.00,VWS V14.01,2013-09-30 03:17:00,
2013-09-29 23:22:00,50.1,48.2,30.11,WNW,294,0.0,0.0,93,0.00,,---,0.00,VWS V14.01,2013-09-30 03:22:00,
2013-09-29 23:27:00,50.0,48.3,30.11,WNW,294,0.0,0.0,94,0.00,,---,0.00,VWS V14.01,2013-09-30 03:27:00,
2013-09-29 23:30:00,52.5,49.1,30.10,WNW,290,0.0,0.0,88,0.00,,---,0.00,VWS V14.01,2013-09-30 03:30:00,
2013-09-29 23:32:00,50.3,48.9,30.11,WNW,294,0.0,0.0,95,0.00,,---,0.00,VWS V14.01,2013-09-30 03:32:00,
2013-09-29 23:37:00,50.4,49.0,30.11,WNW,294,0.0,0.0,95,0.00,,---,0.00,VWS V14.01,2013-09-30 03:37:00,
2013-09-29 23:42:00,50.2,48.3,30.10,WNW,294,0.0,0.0,93,0.00,,---,0.00,VWS V14.01,2013-09-30 03:42:00,
2013-09-29 23:47:00,50.3,48.9,30.10,WNW,294,0.0,0.0,95,0.00,,---,0.00,VWS V14.01,2013-09-30 03:47:00,
2013-09-29 23:52:00,50.4,49.0,30.10,WNW,294,0.0,0.0,95,0.00,,---,0.00,VWS V14.01,2013-09-30 03:52:00,
2013-09-29 23:57:00,50.6,49.2,30.10,WNW,294,0.0,0.0,95,0.00,,---,0.00,VWS V14.01,2013-09-30 03:57:00,